createdAt,value
2022-07-25T00:01:20.861Z,9.17
2022-07-25T00:03:49.054Z,9.03
2022-07-25T00:06:17.897Z,8.87
2022-07-25T00:08:46.073Z,9.40
2022-07-25T00:11:15.485Z,8.50
2022-07-25T00:13:43.483Z,8.50
2022-07-25T00:16:11.548Z,8.23
2022-07-25T00:18:39.534Z,10.00
2022-07-25T00:21:07.744Z,9.57
2022-07-25T00:23:35.716Z,9.40
2022-07-25T00:26:03.918Z,10.13
2022-07-25T00:28:33.313Z,9.07
2022-07-25T00:31:01.429Z,9.43
2022-07-25T00:33:29.400Z,9.40
2022-07-25T00:35:57.434Z,9.87
2022-07-25T00:38:25.480Z,8.50
2022-07-25T00:40:54.163Z,9.10
2022-07-25T00:43:23.315Z,8.93
2022-07-25T00:45:52.764Z,7.60
2022-07-25T00:48:21.059Z,9.37
2022-07-25T00:50:49.450Z,8.20
2022-07-25T00:53:17.659Z,8.87
2022-07-25T00:55:45.887Z,9.50
2022-07-25T00:58:14.431Z,9.40
2022-07-25T01:00:42.645Z,8.10
2022-07-25T01:03:12.044Z,8.77
2022-07-25T01:05:40.591Z,8.83
2022-07-25T01:08:09.231Z,8.77
2022-07-25T01:10:37.700Z,8.47
2022-07-25T01:13:06.084Z,8.53
2022-07-25T01:15:34.267Z,8.10
2022-07-25T01:18:02.367Z,8.60
2022-07-25T01:20:32.939Z,8.50
2022-07-25T01:23:02.157Z,8.80
2022-07-25T01:25:30.212Z,9.03
2022-07-25T01:27:58.478Z,7.90
2022-07-25T01:30:26.983Z,8.60
2022-07-25T01:32:54.974Z,8.63
2022-07-25T01:35:22.975Z,8.57
2022-07-25T01:37:52.438Z,8.40
2022-07-25T01:40:20.399Z,8.80
2022-07-25T01:42:48.426Z,8.00
2022-07-25T01:45:16.450Z,7.57
2022-07-25T01:47:44.380Z,8.30
2022-07-25T01:50:12.461Z,7.53
2022-07-25T01:52:40.685Z,9.03
2022-07-25T01:55:10.907Z,7.90
2022-07-25T01:57:40.815Z,8.50
2022-07-25T02:00:18.330Z,8.70
2022-07-25T02:02:47.151Z,9.13
2022-07-25T02:05:16.283Z,8.60
2022-07-25T02:07:44.297Z,9.30
2022-07-25T02:10:13.629Z,9.30
2022-07-25T02:12:41.611Z,9.03
2022-07-25T02:15:10.494Z,9.50
2022-07-25T02:17:38.562Z,7.97
2022-07-25T02:20:07.756Z,10.13
2022-07-25T02:22:35.747Z,9.90
2022-07-25T02:25:03.656Z,10.27
2022-07-25T02:27:32.985Z,10.23
2022-07-25T02:30:00.921Z,9.60
2022-07-25T02:32:28.856Z,8.97
2022-07-25T02:34:58.364Z,10.10
2022-07-25T02:37:26.470Z,10.27
2022-07-25T02:39:54.413Z,10.90
2022-07-25T02:42:22.406Z,11.13
2022-07-25T02:44:51.752Z,10.83
2022-07-25T02:47:19.767Z,11.13
2022-07-25T02:49:47.733Z,11.10
2022-07-25T02:52:15.839Z,9.90
2022-07-25T02:54:43.951Z,9.27
2022-07-25T02:57:12.009Z,9.13
2022-07-25T02:59:39.978Z,9.37
2022-07-25T03:02:09.371Z,9.30
2022-07-25T03:04:37.364Z,9.97
2022-07-25T03:07:05.497Z,9.63
2022-07-25T03:09:33.408Z,9.00
2022-07-25T03:12:01.357Z,8.93
2022-07-25T03:14:29.351Z,8.57
2022-07-25T03:16:57.528Z,10.40
2022-07-25T03:19:26.851Z,9.57
2022-07-25T03:21:54.858Z,9.10
2022-07-25T03:24:22.841Z,10.07
2022-07-25T03:26:50.813Z,8.80
2022-07-25T03:29:18.756Z,9.67
2022-07-25T03:31:46.802Z,9.40
2022-07-25T03:34:14.799Z,8.20
2022-07-25T03:36:44.248Z,8.20
2022-07-25T03:39:12.618Z,9.33
2022-07-25T03:41:40.583Z,8.90
2022-07-25T03:44:09.530Z,8.67
2022-07-25T03:46:37.898Z,8.17
2022-07-25T03:49:06.307Z,8.57
2022-07-25T03:51:34.364Z,9.00
2022-07-25T03:54:04.059Z,9.10
2022-07-25T03:56:43.326Z,9.40
2022-07-25T03:59:13.616Z,9.57
2022-07-25T04:01:42.830Z,9.60
2022-07-25T04:04:11.390Z,8.63
2022-07-25T04:06:39.954Z,9.10
2022-07-25T04:09:12.209Z,9.90
2022-07-25T04:11:40.882Z,9.97
2022-07-25T04:14:09.717Z,9.80
2022-07-25T04:16:38.226Z,8.50
2022-07-25T04:19:08.697Z,8.13
2022-07-25T04:21:36.811Z,8.20
2022-07-25T04:24:05.451Z,7.80
2022-07-25T04:26:34.951Z,8.90
2022-07-25T04:29:03.736Z,8.43
2022-07-25T04:31:31.993Z,9.15
2022-07-25T04:34:00.166Z,8.52
2022-07-25T04:36:28.285Z,8.75
2022-07-25T04:38:56.323Z,8.52
2022-07-25T04:41:24.294Z,8.82
2022-07-25T04:43:53.620Z,8.43
2022-07-25T04:46:22.233Z,8.43
2022-07-25T04:48:51.429Z,9.13
2022-07-25T04:51:20.275Z,7.90
2022-07-25T04:53:48.438Z,8.80
2022-07-25T04:56:16.450Z,8.60
2022-07-25T04:58:46.868Z,8.68
2022-07-25T05:01:16.312Z,8.77
2022-07-25T05:03:50.347Z,8.80
2022-07-25T05:06:18.770Z,8.27
2022-07-25T05:08:46.832Z,7.90
2022-07-25T05:11:14.783Z,8.00
2022-07-25T05:13:42.804Z,7.35
2022-07-25T05:16:10.914Z,7.65
2022-07-25T05:18:40.629Z,7.50
2022-07-25T05:21:11.656Z,8.38
2022-07-25T05:23:40.220Z,7.35
2022-07-25T05:26:08.410Z,8.07
2022-07-25T05:28:36.747Z,7.72
2022-07-25T05:31:05.066Z,7.65
2022-07-25T05:33:33.197Z,7.40
2022-07-25T05:36:03.399Z,6.60
2022-07-25T05:38:31.746Z,6.72
2022-07-25T05:40:59.743Z,7.30
2022-07-25T05:43:27.959Z,6.38
2022-07-25T05:46:01.741Z,7.03
2022-07-25T05:48:29.904Z,6.97
2022-07-25T05:51:00.707Z,7.40
2022-07-25T05:53:30.107Z,7.03
2022-07-25T05:55:58.173Z,7.00
2022-07-25T05:58:29.606Z,5.97
2022-07-25T06:00:58.518Z,7.10
2022-07-25T06:03:26.807Z,7.07
2022-07-25T06:05:56.518Z,6.57
2022-07-25T06:08:24.951Z,6.95
2022-07-25T06:10:54.357Z,7.25
2022-07-25T06:13:23.543Z,6.57
2022-07-25T06:15:51.728Z,7.30
2022-07-25T06:18:19.812Z,6.15
2022-07-25T06:20:48.846Z,6.88
2022-07-25T06:23:17.623Z,6.90
2022-07-25T06:25:50.374Z,7.20
2022-07-25T06:28:19.980Z,8.20
2022-07-25T06:30:48.207Z,7.57
2022-07-25T06:33:16.281Z,6.88
2022-07-25T06:35:44.283Z,6.60
2022-07-25T06:38:12.508Z,7.50
2022-07-25T06:40:40.944Z,6.20
2022-07-25T06:43:08.924Z,7.40
2022-07-25T06:45:39.186Z,6.32
2022-07-25T06:48:07.659Z,6.82
2022-07-25T06:50:35.968Z,5.82
2022-07-25T06:53:04.154Z,6.00
2022-07-25T06:55:32.527Z,5.82
2022-07-25T06:58:00.596Z,5.80
2022-07-25T07:00:28.679Z,5.90
2022-07-25T07:03:01.345Z,5.72
2022-07-25T07:05:31.229Z,6.13
2022-07-25T07:08:00.251Z,6.18
2022-07-25T07:10:29.675Z,6.00
2022-07-25T07:13:07.676Z,6.43
2022-07-25T07:15:36.908Z,6.03
2022-07-25T07:18:07.632Z,5.88
2022-07-25T07:20:36.116Z,5.75
2022-07-25T07:23:04.781Z,6.10
2022-07-25T07:25:35.378Z,5.72
2022-07-25T07:28:04.310Z,6.35
2022-07-25T07:31:05.751Z,5.78
2022-07-25T07:33:22.785Z,6.78
2022-07-25T07:35:50.765Z,5.93
2022-07-25T07:38:19.221Z,5.65
2022-07-25T07:40:47.365Z,5.75
2022-07-25T07:43:15.712Z,5.97
2022-07-25T07:45:44.951Z,5.40
2022-07-25T07:48:13.275Z,6.20
2022-07-25T07:50:43.001Z,6.00
2022-07-25T07:53:11.041Z,5.88
2022-07-25T07:55:48.754Z,5.35
2022-07-25T07:58:18.260Z,5.88
2022-07-25T08:00:47.927Z,5.57
2022-07-25T08:03:19.187Z,5.53
2022-07-25T08:05:51.784Z,5.90
2022-07-25T08:08:19.946Z,6.45
2022-07-25T08:10:50.214Z,5.85
2022-07-25T08:13:20.949Z,5.75
2022-07-25T08:15:52.457Z,5.95
2022-07-25T08:18:20.945Z,6.50
2022-07-25T08:20:50.904Z,5.50
2022-07-25T08:23:19.660Z,5.22
2022-07-25T08:25:48.062Z,5.55
2022-07-25T08:28:16.353Z,5.05
2022-07-25T08:30:44.645Z,5.57
2022-07-25T08:33:16.070Z,5.97
2022-07-25T08:35:48.590Z,5.88
2022-07-25T08:38:18.245Z,5.43
2022-07-25T08:40:46.397Z,5.97
2022-07-25T08:43:15.228Z,7.30
2022-07-25T08:45:46.683Z,5.20
2022-07-25T08:48:14.978Z,5.32
2022-07-25T08:50:43.277Z,6.07
2022-07-25T08:53:32.174Z,5.93
2022-07-25T08:56:00.891Z,5.45
2022-07-25T08:58:29.385Z,6.30
2022-07-25T09:00:59.457Z,6.13
2022-07-25T09:03:28.238Z,5.93
2022-07-25T09:05:56.350Z,7.00
2022-07-25T09:08:24.365Z,6.05
2022-07-25T09:10:54.367Z,6.38
2022-07-25T09:13:23.713Z,6.85
2022-07-25T09:15:53.860Z,6.22
2022-07-25T09:18:24.996Z,6.30
2022-07-25T09:20:56.151Z,6.35
2022-07-25T09:23:35.056Z,6.90
2022-07-25T09:26:04.599Z,6.20
2022-07-25T09:28:40.664Z,5.72
2022-07-25T09:31:09.797Z,6.70
2022-07-25T09:33:47.689Z,6.72
2022-07-25T09:36:15.793Z,6.82
2022-07-25T09:38:53.678Z,6.55
2022-07-25T09:41:21.976Z,6.93
2022-07-25T09:43:51.395Z,5.88
2022-07-25T09:46:30.104Z,6.18
2022-07-25T09:48:59.335Z,7.40
2022-07-25T09:51:27.987Z,6.32
2022-07-25T09:53:56.159Z,6.30
2022-07-25T09:56:24.147Z,7.00
2022-07-25T09:58:53.453Z,5.97
2022-07-25T10:01:29.897Z,6.63
2022-07-25T10:04:11.096Z,6.60
2022-07-25T10:06:42.398Z,6.60
2022-07-25T10:09:13.233Z,6.45
2022-07-25T10:11:41.759Z,7.10
2022-07-25T10:14:14.272Z,6.38
2022-07-25T10:16:47.980Z,6.80
2022-07-25T10:19:16.223Z,6.63
2022-07-25T10:21:55.629Z,6.38
2022-07-25T10:24:34.464Z,6.22
2022-07-25T10:27:10.215Z,6.82
2022-07-25T10:29:40.762Z,6.50
2022-07-25T10:32:10.046Z,6.47
2022-07-25T10:34:39.005Z,6.88
2022-07-25T10:37:14.921Z,6.93
2022-07-25T10:39:44.747Z,6.03
2022-07-25T10:42:15.597Z,6.93
2022-07-25T10:44:48.741Z,7.00
2022-07-25T10:47:17.954Z,5.90
2022-07-25T10:50:13.873Z,6.03
2022-07-25T10:52:42.832Z,6.47
2022-07-25T10:55:10.952Z,6.50
2022-07-25T10:57:45.324Z,5.75
2022-07-25T11:00:20.068Z,6.72
2022-07-25T11:02:51.345Z,6.35
2022-07-25T11:05:19.398Z,6.07
2022-07-25T11:08:11.530Z,4.75
2022-07-25T11:10:40.680Z,5.75
2022-07-25T11:13:12.559Z,5.97
2022-07-25T11:15:42.209Z,6.28
2022-07-25T11:18:10.200Z,6.78
2022-07-25T11:20:38.291Z,6.50
2022-07-25T11:23:06.744Z,6.88
2022-07-25T11:25:34.830Z,6.47
2022-07-25T11:28:04.046Z,6.10
2022-07-25T11:30:32.466Z,5.95
2022-07-25T11:33:02.415Z,6.10
2022-07-25T11:35:32.249Z,6.18
2022-07-25T11:38:02.264Z,6.65
2022-07-25T11:40:32.764Z,5.35
2022-07-25T11:43:00.979Z,5.68
2022-07-25T11:45:30.919Z,5.55
2022-07-25T11:48:10.579Z,6.18
2022-07-25T11:50:40.325Z,5.47
2022-07-25T11:53:10.010Z,5.80
2022-07-25T11:55:40.976Z,5.32
2022-07-25T11:58:10.389Z,5.95
2022-07-25T12:00:42.737Z,6.22
2022-07-25T12:03:19.132Z,6.50
2022-07-25T12:05:49.383Z,6.53
2022-07-25T12:08:27.062Z,6.68
2022-07-25T12:10:55.771Z,5.97
2022-07-25T12:13:24.984Z,6.38
2022-07-25T12:15:53.186Z,6.68
2022-07-25T12:18:22.766Z,6.55
2022-07-25T12:20:50.771Z,6.57
2022-07-25T12:23:21.663Z,6.43
2022-07-25T12:25:49.836Z,6.40
2022-07-25T12:28:17.968Z,7.45
2022-07-25T12:30:49.499Z,7.00
2022-07-25T12:33:19.783Z,5.93
2022-07-25T12:35:49.195Z,6.90
2022-07-25T12:38:17.174Z,6.75
2022-07-25T12:40:45.486Z,6.50
2022-07-25T12:43:13.707Z,7.03
2022-07-25T12:45:42.616Z,6.47
2022-07-25T12:48:11.220Z,6.30
2022-07-25T12:50:39.184Z,7.03
2022-07-25T12:53:08.591Z,6.63
2022-07-25T12:55:36.632Z,7.75
2022-07-25T12:58:04.849Z,7.25
2022-07-25T13:00:32.803Z,6.93
2022-07-25T13:03:01.020Z,7.20
2022-07-25T13:05:29.869Z,7.22
2022-07-25T13:07:57.941Z,6.78
2022-07-25T13:10:27.266Z,6.20
2022-07-25T13:12:56.287Z,6.47
2022-07-25T13:15:28.256Z,6.72
2022-07-25T13:17:56.225Z,5.38
2022-07-25T13:20:24.761Z,5.40
2022-07-25T13:22:52.774Z,4.88
2022-07-25T13:25:20.955Z,4.55
2022-07-25T13:27:50.447Z,4.82
2022-07-25T13:30:18.425Z,4.32
2022-07-25T13:32:46.546Z,4.25
2022-07-25T13:35:20.126Z,4.10
2022-07-25T13:37:48.860Z,3.33
2022-07-25T13:40:16.830Z,4.00
2022-07-25T13:42:44.849Z,3.42
2022-07-25T13:45:14.261Z,2.78
2022-07-25T13:47:42.678Z,2.85
2022-07-25T13:50:11.537Z,2.63
2022-07-25T13:52:41.514Z,3.10
2022-07-25T13:55:12.699Z,3.10
2022-07-25T13:57:40.734Z,3.38
2022-07-25T14:00:10.430Z,3.35
2022-07-25T14:02:40.013Z,3.50
2022-07-25T14:05:08.708Z,3.80
2022-07-25T14:07:36.907Z,3.20
2022-07-25T14:10:07.615Z,3.75
2022-07-25T14:12:37.275Z,3.50
2022-07-25T14:15:06.611Z,4.07
2022-07-25T14:17:35.373Z,3.70
2022-07-25T14:20:05.675Z,3.28
2022-07-25T14:22:34.008Z,4.00
2022-07-25T14:25:02.455Z,3.72
2022-07-25T14:27:30.656Z,4.03
2022-07-25T14:29:58.971Z,3.72
2022-07-25T14:32:27.596Z,4.43
2022-07-25T14:35:00.954Z,3.85
2022-07-25T14:37:31.809Z,5.15
2022-07-25T14:40:01.728Z,4.25
2022-07-25T14:42:36.220Z,4.15
2022-07-25T14:45:05.615Z,4.50
2022-07-25T14:47:33.877Z,4.50
2022-07-25T14:50:02.611Z,4.50
2022-07-25T14:52:32.293Z,4.75
2022-07-25T14:55:01.083Z,4.13
2022-07-25T14:57:29.431Z,4.68
2022-07-25T14:59:57.592Z,4.53
2022-07-25T15:02:25.984Z,4.97
2022-07-25T15:04:54.176Z,4.93
2022-07-25T15:07:23.077Z,4.78
2022-07-25T15:09:52.656Z,5.35
2022-07-25T15:12:21.836Z,6.47
2022-07-25T15:14:50.313Z,5.45
2022-07-25T15:17:22.181Z,5.30
2022-07-25T15:19:50.635Z,5.45
2022-07-25T15:22:19.232Z,5.25
2022-07-25T15:25:27.560Z,5.88
2022-07-25T15:27:43.491Z,6.13
2022-07-25T15:30:29.515Z,5.88
2022-07-25T15:33:00.839Z,6.00
2022-07-25T15:35:35.293Z,4.60
2022-07-25T15:38:05.997Z,5.38
2022-07-25T15:40:35.365Z,5.70
2022-07-25T15:43:06.878Z,6.75
2022-07-25T15:45:39.313Z,5.78
2022-07-25T15:48:16.935Z,5.57
2022-07-25T15:50:53.079Z,5.70
2022-07-25T15:53:25.198Z,6.38
2022-07-25T15:55:58.579Z,5.30
2022-07-25T15:58:26.953Z,6.57
2022-07-25T16:00:55.518Z,6.05
2022-07-25T16:03:24.071Z,5.38
2022-07-25T16:05:53.963Z,5.47
2022-07-25T16:08:24.696Z,5.47
2022-07-25T16:10:54.240Z,6.13
2022-07-25T16:13:24.193Z,6.60
2022-07-25T16:15:54.827Z,5.88
2022-07-25T16:18:23.308Z,5.93
2022-07-25T16:20:54.079Z,5.47
2022-07-25T16:23:23.316Z,6.00
2022-07-25T16:25:53.732Z,5.72
2022-07-25T16:28:23.130Z,5.50
2022-07-25T16:30:53.299Z,5.07
2022-07-25T16:33:24.169Z,4.85
2022-07-25T16:35:54.342Z,5.22
2022-07-25T16:38:22.285Z,4.47
2022-07-25T16:40:53.075Z,5.78
2022-07-25T16:43:23.872Z,5.80
2022-07-25T16:45:52.001Z,5.10
2022-07-25T16:48:27.732Z,5.03
2022-07-25T16:50:56.337Z,5.80
2022-07-25T16:53:25.869Z,5.53
2022-07-25T16:55:54.015Z,5.20
2022-07-25T16:58:26.268Z,5.20
2022-07-25T17:00:54.250Z,5.10
2022-07-25T17:03:24.779Z,5.70
2022-07-25T17:05:53.937Z,5.63
2022-07-25T17:08:22.010Z,5.65
2022-07-25T17:10:58.162Z,6.22
2022-07-25T17:13:27.515Z,5.93
2022-07-25T17:15:58.659Z,5.82
2022-07-25T17:18:26.679Z,5.40
2022-07-25T17:20:54.749Z,6.30
2022-07-25T17:23:22.733Z,5.60
2022-07-25T17:25:51.194Z,5.38
2022-07-25T17:28:19.110Z,6.03
2022-07-25T17:30:48.503Z,5.22
2022-07-25T17:33:17.508Z,5.63
2022-07-25T17:35:45.942Z,6.03
2022-07-25T17:38:14.753Z,6.40
2022-07-25T17:40:42.748Z,6.57
2022-07-25T17:43:11.004Z,6.10
2022-07-25T17:45:39.930Z,5.72
2022-07-25T17:48:09.958Z,5.57
2022-07-25T17:50:41.048Z,7.05
2022-07-25T17:53:09.586Z,7.40
2022-07-25T17:55:39.125Z,7.25
2022-07-25T17:58:39.922Z,7.05
2022-07-25T18:01:19.140Z,7.10
2022-07-25T18:04:02.883Z,6.93
2022-07-25T18:07:00.452Z,6.85
2022-07-25T18:12:47.682Z,7.30
2022-07-25T18:15:24.612Z,6.90
2022-07-25T18:24:05.370Z,6.30
2022-07-25T18:26:41.430Z,6.53
2022-07-25T18:29:15.959Z,7.20
2022-07-25T18:35:01.793Z,6.88
2022-07-25T18:37:42.899Z,7.10
2022-07-25T18:40:24.033Z,7.47
2022-07-25T18:43:18.162Z,7.50
2022-07-25T18:45:51.030Z,6.60
2022-07-25T18:48:20.003Z,6.55
2022-07-25T18:50:48.775Z,6.90
2022-07-25T18:53:19.288Z,7.00
2022-07-25T18:55:47.967Z,7.75
2022-07-25T18:58:18.190Z,7.28
2022-07-25T19:00:46.665Z,7.07
2022-07-25T19:03:18.076Z,6.80
2022-07-25T19:05:46.399Z,8.40
2022-07-25T19:08:14.548Z,7.07
2022-07-25T19:10:44.206Z,7.28
2022-07-25T19:13:26.772Z,6.25
2022-07-25T19:16:02.868Z,7.05
2022-07-25T19:18:31.031Z,6.82
2022-07-25T19:20:59.383Z,6.68
2022-07-25T19:23:27.660Z,7.47
2022-07-25T19:25:58.006Z,7.32
2022-07-25T19:28:26.106Z,7.18
2022-07-25T19:30:54.429Z,7.25
2022-07-25T19:33:22.608Z,6.82
2022-07-25T19:35:50.979Z,6.85
2022-07-25T19:38:20.733Z,7.38
2022-07-25T19:40:48.803Z,7.90
2022-07-25T19:43:18.537Z,6.95
2022-07-25T19:45:46.977Z,7.68
2022-07-25T19:48:15.041Z,8.05
2022-07-25T19:50:43.572Z,7.45
2022-07-25T19:53:12.021Z,7.25
2022-07-25T19:55:40.228Z,7.97
2022-07-25T19:58:08.498Z,8.00
2022-07-25T20:00:38.694Z,8.43
2022-07-25T20:03:06.953Z,7.30
2022-07-25T20:05:35.030Z,6.75
2022-07-25T20:08:06.920Z,7.28
2022-07-25T20:10:35.195Z,5.97
2022-07-25T20:13:03.595Z,6.18
2022-07-25T20:15:31.612Z,5.63
2022-07-25T20:18:03.822Z,5.93
2022-07-25T20:20:40.927Z,5.82
2022-07-25T20:23:09.195Z,5.63
2022-07-25T20:25:40.384Z,5.35
2022-07-25T20:28:19.018Z,6.38
2022-07-25T20:30:55.828Z,5.28
2022-07-25T20:33:29.905Z,5.97
2022-07-25T20:36:09.855Z,5.82
2022-07-25T20:38:42.402Z,5.70
2022-07-25T20:41:23.522Z,5.25
2022-07-25T20:43:53.829Z,5.18
2022-07-25T20:46:23.883Z,5.28
2022-07-25T20:48:59.342Z,4.35
2022-07-25T20:51:27.448Z,4.80
2022-07-25T20:54:01.510Z,5.13
2022-07-25T20:56:33.069Z,4.50
2022-07-25T20:59:01.481Z,4.60
2022-07-25T21:01:39.029Z,4.28
2022-07-25T21:04:09.675Z,4.15
2022-07-25T21:06:41.360Z,3.80
2022-07-25T21:09:14.797Z,4.70
2022-07-25T21:11:43.199Z,4.55
2022-07-25T21:14:11.663Z,3.58
2022-07-25T21:16:40.669Z,3.45
2022-07-25T21:19:11.063Z,3.25
2022-07-25T21:21:39.506Z,3.67
2022-07-25T21:24:08.385Z,3.60
2022-07-25T21:26:37.122Z,3.78
2022-07-25T21:29:05.540Z,3.22
2022-07-25T21:31:34.110Z,2.92
2022-07-25T21:34:02.475Z,3.05
2022-07-25T21:36:32.069Z,2.90
2022-07-25T21:39:00.008Z,2.95
2022-07-25T21:41:28.403Z,2.88
2022-07-25T21:43:56.429Z,2.83
2022-07-25T21:46:24.572Z,3.38
2022-07-25T21:49:10.305Z,3.05
2022-07-25T21:51:41.250Z,3.50
2022-07-25T21:54:11.143Z,3.38
2022-07-25T21:56:41.204Z,4.03
2022-07-25T21:59:09.761Z,4.57
2022-07-25T22:01:38.052Z,4.88
2022-07-25T22:04:06.676Z,4.88
2022-07-25T22:06:34.747Z,4.25
2022-07-25T22:09:05.191Z,4.50
2022-07-25T22:11:43.040Z,4.80
2022-07-25T22:14:15.047Z,5.18
2022-07-25T22:16:43.224Z,4.97
2022-07-25T22:19:11.629Z,4.43
2022-07-25T22:21:41.497Z,4.90
2022-07-25T22:24:11.278Z,4.80
2022-07-25T22:26:39.271Z,5.20
2022-07-25T22:29:07.657Z,4.47
2022-07-25T22:31:36.015Z,4.30
2022-07-25T22:34:04.037Z,4.18
2022-07-25T22:36:32.046Z,4.43
2022-07-25T22:39:00.102Z,4.55
2022-07-25T22:41:29.561Z,4.20
2022-07-25T22:43:59.911Z,4.57
2022-07-25T22:46:28.567Z,4.55
2022-07-25T22:48:57.125Z,4.65
2022-07-25T22:51:25.442Z,4.43
2022-07-25T22:53:53.510Z,4.10
2022-07-25T22:56:21.846Z,3.72
2022-07-25T22:58:51.400Z,3.95
2022-07-25T23:01:19.865Z,3.67
2022-07-25T23:03:49.967Z,3.72
2022-07-25T23:06:18.766Z,3.70
2022-07-25T23:08:46.733Z,3.45
2022-07-25T23:11:14.813Z,3.95
2022-07-25T23:13:42.781Z,4.63
2022-07-25T23:16:12.114Z,3.67
2022-07-25T23:18:40.137Z,3.90
2022-07-25T23:21:08.516Z,3.80
2022-07-25T23:23:36.435Z,4.15
2022-07-25T23:26:04.489Z,3.67
2022-07-25T23:28:32.472Z,3.78
2022-07-25T23:31:00.481Z,3.88
2022-07-25T23:33:31.098Z,4.00
2022-07-25T23:35:58.998Z,3.60
2022-07-25T23:38:26.898Z,4.15
2022-07-25T23:40:55.055Z,3.63
2022-07-25T23:43:54.428Z,4.03
2022-07-25T23:46:10.868Z,3.97
2022-07-25T23:48:41.057Z,4.18
2022-07-25T23:51:09.039Z,3.90
2022-07-25T23:53:37.499Z,3.42
2022-07-25T23:56:06.130Z,3.42
2022-07-25T23:58:34.104Z,3.75
